Scottish Airport Reports

Civil airfields updated at H+20 and H+50
RAF airfields updated at H+50 only

EGPD - Aberdeen
Distance from station: NNE 19mi, 31km
Updated: 15/02/2019 21:50
Partly cloudy
Partly cloudy
 Wind from S
Wind: S 21 mph , 33 km/h
Temperature: 8°C
Wind Chill: 3°C
Dew Point: 4°C
Humidity: 76%
Barometer: 1010 hPa
Clouds: Partly cloudy
Visibility: 6 miles , 10 km
Cloud details: Partly cloudy 2100 ft
2019/02/15 21:50 EGPD 152150Z AUTO 19018KT 9999 SCT021 08/04 Q1010 NOSIG
EGPN - Dundee
Distance from station: SW 41mi, 66km
Updated: 15/02/2019 20:20
NOT Current
Clear
Clear
 Wind from W
Wind: W 5 mph , 7 km/h
Temperature: 9°C
Wind Chill: 8°C
Dew Point: 5°C
Humidity: 76%
Barometer: 1012 hPa
Summary: Clear
Visibility: greater than 7 miles , 10 km
2019/02/15 20:20 EGPN 152020Z 28004KT 250V310 CAVOK 09/05 Q1012
 
EGQS - RAF Lossiemouth
Distance from station: NNW 63mi, 102km
Updated: 15/02/2019 21:50
Mostly cloudy
Mostly cloudy
 Wind from SSW
Wind: SSW 10 mph , 17 km/h
Temperature: 11°C
Dew Point: 7°C
Humidity: 77%
Barometer: 1007 hPa
Clouds: Mostly cloudy
Visibility: 6 miles , 10 km
Cloud details: Few Clouds 3500 ft
Partly cloudy 6000 ft
Mostly cloudy 17000 ft
2019/02/15 21:50 EGQS 152150Z 20009KT 9999 FEW035 SCT060 BKN170 11/07 Q1007 BLU
EGPE - Inverness
Distance from station: WNW 73mi, 117km
Updated: 15/02/2019 21:50
Light rain, Few clouds
Light rain, Few clouds
 Wind from S
Wind: S 12 mph , 19 km/h
Temperature: 10°C
Wind Chill: 7°C
Dew Point: 7°C
Humidity: 82%
Barometer: 1007 hPa
Summary: Light rain
Clouds: Few Clouds
Visibility: 6 miles , 10 km
Cloud details: Few Clouds 4500 ft
2019/02/15 21:50 EGPE 152150Z 18010KT 9999 -RA FEW045 10/07 Q1007
 
EGPH - Edinburgh
Distance from station: SSW 77mi, 125km
Updated: 15/02/2019 21:50
Clear
Clear
 Wind from SSW
Wind: SSW 28 mph , 44 km/h, Gust: 39 mph , 63 km/h
Temperature: 11°C
Dew Point: 8°C
Humidity: 82%
Barometer: 1011 hPa
Summary: Clear
Visibility: greater than 7 miles , 10 km
2019/02/15 21:50 EGPH 152150Z 20024G34KT CAVOK 11/08 Q1011
EGPC - Wick
Distance from station: NNW 107mi, 172km
Updated: 15/02/2019 21:50
Clear
Clear
 Wind from S
Wind: S 12 mph , 19 km/h
Temperature: 9°C
Wind Chill: 6°C
Dew Point: 6°C
Humidity: 82%
Barometer: 1007 hPa
Clouds: Clear
Visibility: 6 miles , 10 km
2019/02/15 21:50 EGPC 152150Z AUTO 19010KT 9999 NCD 09/06 Q1007
 
EGPF - Glasgow
Distance from station: SW 107mi, 172km
Updated: 15/02/2019 21:50
Light rain, Thunderstorm
Light rain, Thunderstorm
 Wind from S
Wind: S 16 mph , 26 km/h, Gust: 28 mph , 44 km/h
Temperature: 10°C
Wind Chill: 7°C
Dew Point: 9°C
Humidity: 94%
Barometer: 1011 hPa
Summary: Light rain
Clouds: Thunderstorm
Visibility: 4 miles , 6 km
Cloud details: Mostly cloudy 1300 ft
Overcast 2300 ft
2019/02/15 21:50 EGPF 152150Z AUTO 18014G24KT 6000 -RA BKN013/// OVC023/// //////CB 10/09 Q1011
EGPK - Prestwick
Distance from station: SW 130mi, 209km
Updated: 15/02/2019 21:50
Light rain, Drizzle, Mostly cloudy
Light rain, Drizzle, Mostly cloudy
 Wind from S
Wind: S 21 mph , 33 km/h
Temperature: 10°C
Wind Chill: 6°C
Dew Point: 9°C
Humidity: 94%
Barometer: 1011 hPa
Summary: Light rain, Drizzle
Clouds: Mostly cloudy
Visibility: 6 miles , 9 km
Cloud details: Mostly cloudy 1500 ft
2019/02/15 21:50 EGPK 152150Z 19018KT 9000 -RADZ BKN015 10/09 Q1011
 
EGPA - Kirkwall, Orkney
Distance from station: N 140mi, 225km
Updated: 15/02/2019 21:50
Light rain, Overcast
Light rain, Overcast
 Wind from S
Wind: S 10 mph , 17 km/h
Temperature: 9°C
Wind Chill: 7°C
Dew Point: 6°C
Humidity: 82%
Barometer: 1007 hPa
Summary: Light rain
Clouds: Overcast
Visibility: 6 miles , 10 km
Cloud details: Mostly cloudy 2600 ft
Overcast 3400 ft
2019/02/15 21:50 EGPA 152150Z AUTO 18009KT 9999 -RA BKN026/// OVC034/// 09/06 Q1007
EGPO - Stornoway, Outer Hebrides
Distance from station: WNW 169mi, 273km
Updated: 15/02/2019 21:50
Light rain, Overcast
Light rain, Overcast
 Wind from SSW
Wind: SSW 20 mph , 31 km/h
Temperature: 9°C
Wind Chill: 5°C
Dew Point: 8°C
Humidity: 94%
Barometer: 1005 hPa
Summary: Light rain
Clouds: Overcast
Visibility: 4 miles , 7 km
Cloud details: Mostly cloudy 700 ft
Mostly cloudy 1000 ft
Overcast 2600 ft
2019/02/15 21:50 EGPO 152150Z AUTO 20017KT 7000 -RA BKN007/// BKN010/// OVC026/// 09/08 Q1005
 
EGPI - Islay, Inner Hebrides
Distance from station: WSW 172mi, 276km
Updated: 15/02/2019 21:50
Few Clouds
Few Clouds
 Wind from SSE
Wind: SSE 13 mph , 20 km/h
Temperature: 10°C
Wind Chill: 7°C
Dew Point: 9°C
Humidity: 94%
Barometer: 1009 hPa
Clouds: Few Clouds
Visibility: 5 miles , 8 km
Cloud details: Few Clouds 3000 ft
2019/02/15 21:50 EGPI 152150Z AUTO 16011KT 130V210 8000 FEW030/// 10/09 Q1009
EGPU - Tiree, Inner Hebrides
Distance from station: W 172mi, 276km
Updated: 15/02/2019 21:50
Mostly cloudy
Mostly cloudy
 Wind from SW
Wind: SW 12 mph , 19 km/h
Temperature: 10°C
Wind Chill: 7°C
Dew Point: 9°C
Humidity: 94%
Barometer: 1007 hPa
Clouds: Mostly cloudy
Visibility: 4 miles , 6 km
Cloud details: Few Clouds 600 ft
Mostly cloudy 1200 ft
2019/02/15 21:50 EGPU 152150Z AUTO 22010KT 6000 FEW006/// BKN012/// 10/09 Q1007 RERA
 
EGPB - Sumburgh, Shetland
Distance from station: NNE 208mi, 332km
Updated: 15/02/2019 21:50
Rain, Overcast
Rain, Overcast
 Wind from SW
Wind: SW 10 mph , 17 km/h
Temperature: 9°C
Wind Chill: 7°C
Dew Point: 8°C
Humidity: 94%
Barometer: 1008 hPa
Summary: Rain
Clouds: Overcast
Visibility: 2 miles , 4 km
Cloud details: Overcast 1000 ft
2019/02/15 21:50 EGPB 152150Z AUTO 22009KT 3700 RA OVC010/// 09/08 Q1008 REDZ
EGPM - Scatsa, Shetland
Distance from station: NNE 245mi, 392km
Updated: 15/02/2019 21:50
Light drizzle, Overcast
Light drizzle, Overcast
 Wind from W
Wind: W 15 mph , 24 km/h, Gust: 28 mph , 44 km/h
Temperature: 8°C
Wind Chill: 4°C
Dew Point: 7°C
Humidity: 93%
Barometer: 1007 hPa
Summary: Light Drizzle
Clouds: Overcast
Visibility: 2 miles , 4 km
Cloud details: Mostly cloudy 200 ft
Overcast 1100 ft
2019/02/15 21:50 EGPM 152150Z AUTO 28013G24KT 240V310 3900 -DZ BKN002/// OVC011/// 08/07 Q1007 RERA REDZ
-->